Time;durP1;ratioP1;P1;durP2;ratioP2;P2;SDS_P1;SDS_P2;PMS_P1;PMS_P2;Temp;Humidity;BMP_temperature;BMP_pressure;BME280_temperature;BME280_humidity;BME280_pressure;Samples;Min_cycle;Max_cycle;Signal;HPM_P1;HPM_P2
2024/01/08 00:01:03;;;;;;;17.98;6.75;;;;;;;-18.06;84.29;100631.38;4954042;28;20705;-66
2024/01/08 00:03:30;;;;;;;10.82;6.25;;;;;;;-18.08;84.11;100629.66;4937804;29;20051;-66
2024/01/08 00:05:56;;;;;;;15.23;5.88;;;;;;;-18.08;83.54;100624.56;4940841;28;20051;-66
2024/01/08 00:08:22;;;;;;;17.27;6.38;;;;;;;-18.05;83.67;100619.59;4958323;28;20549;-65
2024/01/08 00:10:48;;;;;;;10.52;5.53;;;;;;;-18.03;83.72;100628.94;4915286;29;20143;-65
2024/01/08 00:13:14;;;;;;;17.37;7.47;;;;;;;-18.07;83.65;100622.06;4884033;29;20143;-66
2024/01/08 00:15:40;;;;;;;13.93;6.55;;;;;;;-18.06;83.63;100622.91;4899916;29;20489;-66
2024/01/08 00:18:06;;;;;;;13.63;6.33;;;;;;;-18.08;83.49;100625.41;4931868;29;20062;-65
2024/01/08 00:20:32;;;;;;;15.07;6.50;;;;;;;-18.05;84.12;100629.72;4920790;29;20074;-67
2024/01/08 00:22:58;;;;;;;9.97;5.67;;;;;;;-18.01;84.36;100627.31;4920027;29;20287;-65
2024/01/08 00:25:24;;;;;;;13.90;6.18;;;;;;;-17.94;84.14;100632.53;4919175;29;20063;-66
2024/01/08 00:27:50;;;;;;;12.47;6.43;;;;;;;-17.91;84.17;100635.13;4897598;29;20115;-66
2024/01/08 00:30:17;;;;;;;9.43;5.70;;;;;;;-17.80;84.42;100631.19;4926925;29;20106;-67
2024/01/08 00:32:43;;;;;;;16.92;6.07;;;;;;;-17.82;83.75;100613.41;4951267;29;20055;-67
2024/01/08 00:35:09;;;;;;;10.70;5.80;;;;;;;-17.81;83.28;100619.31;4919436;29;20263;-66
2024/01/08 00:37:35;;;;;;;13.97;6.13;;;;;;;-17.79;83.04;100618.56;4997290;28;20293;-66
2024/01/08 00:40:04;;;;;;;10.77;5.50;;;;;;;-17.73;82.91;100612.78;4963608;28;20033;-67
2024/01/08 00:42:32;;;;;;;14.57;5.88;;;;;;;-17.80;82.91;100611.75;4969308;28;20056;-65
2024/01/08 00:44:58;;;;;;;12.77;6.43;;;;;;;-17.77;83.23;100609.28;5021401;28;20503;-66
2024/01/08 00:47:24;;;;;;;11.43;5.38;;;;;;;-17.77;83.28;100616.06;5004020;28;20437;-66
2024/01/08 00:49:50;;;;;;;10.20;5.20;;;;;;;-17.76;83.18;100615.22;5002186;28;20083;-65
2024/01/08 00:52:17;;;;;;;9.67;5.70;;;;;;;-17.67;83.20;100628.13;5017464;28;20057;-72
2024/01/08 00:54:43;;;;;;;12.63;6.22;;;;;;;-17.75;83.04;100632.16;5018076;28;20037;-65
2024/01/08 00:57:12;;;;;;;16.40;6.93;;;;;;;-17.68;83.04;100627.28;5017691;28;20048;-65
2024/01/08 00:59:38;;;;;;;15.15;7.43;;;;;;;-17.67;82.78;100623.06;5028014;28;20185;-67
2024/01/08 01:02:04;;;;;;;11.73;6.60;;;;;;;-17.62;83.32;100622.38;5001327;28;20057;-65
2024/01/08 01:04:34;;;;;;;13.52;6.20;;;;;;;-17.56;83.48;100617.44;5002138;28;20049;-66
2024/01/08 01:07:00;;;;;;;13.95;6.13;;;;;;;-17.48;83.38;100621.03;4985294;28;20128;-66
2024/01/08 01:09:26;;;;;;;12.60;6.50;;;;;;;-17.43;83.44;100616.84;5013765;28;20049;-66
2024/01/08 01:11:53;;;;;;;14.67;5.83;;;;;;;-17.36;82.34;100613.66;4997666;28;20057;-65
2024/01/08 01:14:20;;;;;;;15.07;6.70;;;;;;;-17.30;82.39;100623.09;4997344;28;20060;-65
2024/01/08 01:16:47;;;;;;;12.45;6.55;;;;;;;-17.32;82.12;100617.09;4982065;28;20077;-72
2024/01/08 01:19:13;;;;;;;16.27;6.53;;;;;;;-17.35;82.22;100622.97;5014779;28;20472;-65
2024/01/08 01:21:38;;;;;;;13.60;6.00;;;;;;;-17.37;82.13;100619.53;5020442;28;20111;-67
2024/01/08 01:24:04;;;;;;;16.80;6.93;;;;;;;-17.38;82.23;100629.66;5020317;28;20148;-66
2024/01/08 01:26:32;;;;;;;14.10;6.07;;;;;;;-17.40;83.89;100623.72;5053893;28;20388;-65
2024/01/08 01:28:58;;;;;;;14.20;7.35;;;;;;;-17.41;84.11;100620.31;5020646;28;20044;-66
2024/01/08 01:31:24;;;;;;;13.80;7.00;;;;;;;-17.41;83.25;100619.44;5069465;27;20058;-65
2024/01/08 01:33:49;;;;;;;13.60;6.73;;;;;;;-17.35;83.24;100617.03;5063678;27;20039;-66
2024/01/08 01:36:15;;;;;;;13.80;5.83;;;;;;;-17.30;82.45;100623.09;5063700;27;20047;-65
2024/01/08 01:38:41;;;;;;;12.13;6.07;;;;;;;-17.29;81.71;100614.63;5096920;27;20043;-67
2024/01/08 01:41:07;;;;;;;15.57;5.90;;;;;;;-17.29;81.21;100629.84;5094004;27;20394;-65
2024/01/08 01:43:32;;;;;;;11.33;6.20;;;;;;;-17.24;81.17;100624.09;5091563;28;20048;-66
2024/01/08 01:46:06;;;;;;;13.20;6.90;;;;;;;-17.13;81.34;100626.88;5095303;28;20058;-66
2024/01/08 01:48:32;;;;;;;10.32;5.65;;;;;;;-17.22;80.46;100624.13;5037826;28;20070;-66
2024/01/08 01:50:59;;;;;;;13.35;5.97;;;;;;;-17.22;80.57;100624.13;5020736;28;20496;-66
2024/01/08 01:53:24;;;;;;;14.52;5.82;;;;;;;-17.23;80.84;100625.78;5017783;28;20060;-65
2024/01/08 01:55:51;;;;;;;9.53;5.60;;;;;;;-17.15;81.28;100628.50;5000858;28;20389;-67
2024/01/08 01:58:17;;;;;;;11.85;5.75;;;;;;;-17.13;81.70;100624.31;5000881;28;20151;-65
2024/01/08 02:00:45;;;;;;;12.45;5.88;;;;;;;-17.22;81.79;100624.13;5033678;28;20464;-65
2024/01/08 02:03:11;;;;;;;14.97;7.00;;;;;;;-17.14;82.05;100633.59;5000595;28;20048;-65
2024/01/08 02:05:37;;;;;;;14.55;6.35;;;;;;;-17.12;81.95;100624.34;5017052;28;20083;-65
2024/01/08 02:08:04;;;;;;;16.42;6.97;;;;;;;-17.10;81.67;100622.72;5003174;28;20045;-65
2024/01/08 02:10:34;;;;;;;16.67;7.25;;;;;;;-17.10;81.73;100622.72;5034420;28;20088;-65
2024/01/08 02:13:00;;;;;;;18.77;6.85;;;;;;;-17.14;81.18;100623.44;5015957;28;20064;-66
2024/01/08 02:15:26;;;;;;;20.20;7.88;;;;;;;-17.13;81.30;100627.72;5027313;28;20111;-68
2024/01/08 02:17:53;;;;;;;14.30;6.87;;;;;;;-17.12;80.88;100624.34;4994213;28;20053;-66
2024/01/08 02:20:20;;;;;;;17.55;7.90;;;;;;;-17.10;81.12;100616.78;5010750;28;20051;-66
2024/01/08 02:22:46;;;;;;;13.82;6.40;;;;;;;-17.17;80.85;100603.06;5017260;28;20555;-70
2024/01/08 02:25:12;;;;;;;19.38;7.78;;;;;;;-17.17;80.65;100609.84;5053485;28;20510;-67
2024/01/08 02:27:39;;;;;;;16.50;7.18;;;;;;;-17.16;81.02;100607.34;5058409;28;20040;-66
2024/01/08 02:30:05;;;;;;;16.57;7.60;;;;;;;-17.14;80.75;100609.94;5059674;28;20074;-66
2024/01/08 02:32:31;;;;;;;16.48;7.95;;;;;;;-17.15;80.75;100611.59;5035808;28;20084;-66
2024/01/08 02:34:57;;;;;;;16.50;7.50;;;;;;;-17.10;80.96;100619.31;5019645;28;20125;-66
2024/01/08 02:37:23;;;;;;;18.50;7.07;;;;;;;-17.04;80.30;100620.31;5036002;28;20484;-66
2024/01/08 02:39:49;;;;;;;16.80;6.57;;;;;;;-16.98;79.99;100620.44;5003247;28;20118;-66
2024/01/08 02:42:18;;;;;;;16.27;6.63;;;;;;;-16.89;79.33;100625.72;5019258;28;20040;-65
2024/01/08 02:44:44;;;;;;;15.27;7.35;;;;;;;-16.90;78.03;100621.47;4999491;28;20173;-65
2024/01/08 02:47:09;;;;;;;18.03;6.77;;;;;;;-16.89;78.17;100615.56;4967462;28;20053;-65
2024/01/08 02:49:35;;;;;;;19.27;7.60;;;;;;;-16.81;78.22;100633.50;4996250;28;20057;-68
2024/01/08 02:52:02;;;;;;;23.13;7.25;;;;;;;-16.82;77.66;100619.09;5012353;28;20055;-68
2024/01/08 02:54:30;;;;;;;20.95;7.18;;;;;;;-16.81;77.46;100621.66;4979980;28;20045;-65
2024/01/08 02:56:57;;;;;;;14.52;6.63;;;;;;;-16.79;76.96;100621.69;5029004;28;20169;-67
2024/01/08 02:59:23;;;;;;;13.93;6.97;;;;;;;-16.75;76.63;100620.91;4980039;28;20045;-70
2024/01/08 03:01:49;;;;;;;17.30;6.80;;;;;;;-16.71;75.58;100622.72;5012837;28;20124;-66
2024/01/08 03:04:15;;;;;;;18.10;7.18;;;;;;;-16.77;75.33;100620.88;5015384;28;20073;-66
2024/01/08 03:06:41;;;;;;;17.53;7.10;;;;;;;-16.72;75.06;100615.91;5039455;28;20572;-65
2024/01/08 03:09:07;;;;;;;20.33;8.07;;;;;;;-16.83;75.86;100614.81;5039337;28;20078;-65
2024/01/08 03:11:32;;;;;;;13.70;6.67;;;;;;;-16.89;76.68;100609.59;5039422;28;20208;-65
2024/01/08 03:13:58;;;;;;;18.70;7.63;;;;;;;-17.14;78.09;100599.78;5055408;28;20142;-66
2024/01/08 03:16:24;;;;;;;15.20;7.53;;;;;;;-17.34;79.47;100598.47;5056843;28;20063;-70
2024/01/08 03:18:50;;;;;;;24.60;9.70;;;;;;;-17.48;80.75;100587.16;5061046;28;20046;-66
2024/01/08 03:21:17;;;;;;;15.70;7.97;;;;;;;-17.52;81.50;100598.06;5093573;28;20051;-67
2024/01/08 03:23:43;;;;;;;28.93;10.70;;;;;;;-17.50;80.66;100596.41;5060167;28;20052;-67
2024/01/08 03:26:10;;;;;;;28.13;10.18;;;;;;;-17.68;79.90;100585.84;5080345;28;20036;-66
2024/01/08 03:28:36;;;;;;;25.17;9.20;;;;;;;-17.71;80.93;100595.91;5063532;28;20452;-66
2024/01/08 03:31:02;;;;;;;21.48;8.63;;;;;;;-17.65;80.72;100602.00;5114147;28;20427;-66
2024/01/08 03:33:28;;;;;;;19.47;7.73;;;;;;;-17.56;80.09;100601.34;5062863;28;20146;-65
2024/01/08 03:35:55;;;;;;;24.15;9.13;;;;;;;-17.51;79.73;100597.25;5097029;28;20036;-67
2024/01/08 03:38:20;;;;;;;16.33;8.25;;;;;;;-17.51;80.21;100600.63;5063644;28;20552;-66
2024/01/08 03:40:47;;;;;;;16.53;6.77;;;;;;;-17.48;79.03;100605.81;5065168;28;20048;-66
2024/01/08 03:43:14;;;;;;;21.83;9.45;;;;;;;-17.44;79.04;100594.88;5064618;28;20432;-66
2024/01/08 03:45:41;;;;;;;23.13;9.05;;;;;;;-17.40;78.25;100595.78;5063395;28;20470;-66
2024/01/08 03:48:07;;;;;;;24.43;9.17;;;;;;;-17.38;77.81;100592.44;5079887;28;20130;-66
2024/01/08 03:50:33;;;;;;;30.03;9.27;;;;;;;-17.39;77.08;100592.41;5079578;28;20036;-66
2024/01/08 03:52:59;;;;;;;24.63;9.43;;;;;;;-17.48;76.53;100590.56;5062977;28;20134;-66
2024/01/08 03:55:24;;;;;;;19.60;8.73;;;;;;;-17.46;76.21;100593.97;5078679;28;20163;-66
2024/01/08 03:57:50;;;;;;;20.60;9.33;;;;;;;-17.48;75.60;100599.84;5045022;28;20055;-66
2024/01/08 04:00:16;;;;;;;18.67;8.67;;;;;;;-17.56;75.24;100597.16;5045372;28;20061;-66
2024/01/08 04:02:42;;;;;;;24.95;10.48;;;;;;;-17.68;75.40;100609.53;5063789;28;20464;-65
2024/01/08 04:05:11;;;;;;;22.70;9.43;;;;;;;-17.77;75.65;100606.75;5045844;28;20051;-66
2024/01/08 04:07:37;;;;;;;20.30;8.48;;;;;;;-18.10;76.19;100600.84;5078781;28;20081;-66
2024/01/08 04:10:06;;;;;;;24.20;10.50;;;;;;;-18.23;77.34;100604.75;5018816;28;20056;-65
2024/01/08 04:12:33;;;;;;;27.50;10.82;;;;;;;-18.30;79.18;100596.94;5002439;28;20166;-65
2024/01/08 04:15:00;;;;;;;23.73;10.02;;;;;;;-18.35;81.34;100588.34;5002399;28;20052;-65
2024/01/08 04:17:27;;;;;;;32.40;11.25;;;;;;;-18.52;84.21;100585.41;4986277;28;20361;-66
2024/01/08 04:19:53;;;;;;;27.80;10.27;;;;;;;-18.33;86.10;100591.78;5002867;28;20064;-65
2024/01/08 04:22:19;;;;;;;20.63;10.27;;;;;;;-18.36;86.57;100581.59;5018470;28;20055;-66
2024/01/08 04:24:46;;;;;;;34.17;10.82;;;;;;;-18.33;86.89;100582.53;4986139;28;20460;-66
2024/01/08 04:27:12;;;;;;;24.43;10.97;;;;;;;-18.32;88.76;100581.69;5018209;28;20048;-65
2024/01/08 04:29:37;;;;;;;21.37;10.33;;;;;;;-18.21;88.72;100580.31;5021597;28;20165;-66
2024/01/08 04:32:04;;;;;;;24.80;9.90;;;;;;;-17.99;89.27;100585.06;5021301;28;20058;-66
2024/01/08 04:34:29;;;;;;;27.05;10.65;;;;;;;-17.93;88.56;100586.06;5037470;28;20056;-66
2024/01/08 04:36:55;;;;;;;33.43;12.00;;;;;;;-17.81;88.45;100588.88;5004588;28;20136;-66
2024/01/08 04:39:21;;;;;;;26.93;12.10;;;;;;;-17.79;87.80;100589.78;5021009;28;20381;-65
2024/01/08 04:41:46;;;;;;;41.00;18.17;;;;;;;-17.75;88.23;100578.88;5053320;28;20131;-65
2024/01/08 04:44:13;;;;;;;38.92;14.43;;;;;;;-17.75;88.05;100576.34;5052772;28;20056;-68
2024/01/08 04:46:42;;;;;;;24.15;12.07;;;;;;;-17.67;88.75;100569.78;5035018;28;20096;-66
2024/01/08 04:49:08;;;;;;;25.88;11.50;;;;;;;-17.76;89.25;100574.66;5014072;28;20049;-66
2024/01/08 04:51:33;;;;;;;25.20;12.13;;;;;;;-17.75;89.71;100578.88;4981478;28;20053;-65
2024/01/08 04:54:00;;;;;;;26.03;12.63;;;;;;;-17.93;90.45;100581.00;4991155;28;20057;-71
2024/01/08 04:56:30;;;;;;;29.50;13.20;;;;;;;-17.82;92.12;100575.38;5014725;28;20083;-66
2024/01/08 04:58:56;;;;;;;33.97;14.93;;;;;;;-17.81;93.20;100573.69;4982050;28;20474;-66
2024/01/08 05:01:22;;;;;;;29.05;11.95;;;;;;;-17.77;93.76;100573.78;4997694;28;20164;-67
2024/01/08 05:03:48;;;;;;;22.05;11.23;;;;;;;-17.99;93.17;100574.94;5013504;28;20084;-66
2024/01/08 05:06:14;;;;;;;16.73;8.73;;;;;;;-18.24;93.73;100577.69;4981709;28;20537;-65
2024/01/08 05:08:40;;;;;;;22.23;9.55;;;;;;;-18.25;95.16;100573.41;5014206;28;20123;-65
2024/01/08 05:11:06;;;;;;;17.97;9.17;;;;;;;-18.32;95.53;100569.03;4997560;28;20053;-67
2024/01/08 05:13:34;;;;;;;22.23;10.02;;;;;;;-18.34;96.41;100570.66;5014025;28;20068;-66
2024/01/08 05:16:02;;;;;;;22.20;9.48;;;;;;;-18.34;97.03;100570.66;5065252;28;20511;-66
2024/01/08 05:18:28;;;;;;;20.00;9.07;;;;;;;-18.34;97.19;100569.81;5024132;28;20143;-67
2024/01/08 05:20:54;;;;;;;19.13;7.97;;;;;;;-18.44;97.59;100572.94;5054705;28;20282;-65
2024/01/08 05:23:20;;;;;;;17.73;7.87;;;;;;;-18.55;97.51;100561.66;5077614;28;20076;-65
2024/01/08 05:25:47;;;;;;;28.85;10.35;;;;;;;-18.58;97.97;100566.66;5094848;28;20055;-65
2024/01/08 05:28:13;;;;;;;20.70;9.27;;;;;;;-18.59;98.68;100572.53;5094651;28;20044;-68
2024/01/08 05:30:38;;;;;;;17.57;8.73;;;;;;;-18.54;99.00;100578.59;5077888;28;20048;-68
2024/01/08 05:33:05;;;;;;;19.73;7.97;;;;;;;-18.53;98.76;100581.19;5077999;28;20039;-66
2024/01/08 05:35:34;;;;;;;20.23;9.18;;;;;;;-18.52;98.65;100582.88;5077975;28;20067;-72
2024/01/08 05:38:01;;;;;;;14.88;7.72;;;;;;;-18.52;98.73;100575.28;5111739;28;20043;-66
2024/01/08 05:40:27;;;;;;;15.70;7.85;;;;;;;-18.51;98.99;100573.63;5094515;28;20516;-67
2024/01/08 05:42:53;;;;;;;18.85;7.38;;;;;;;-18.50;98.96;100582.91;5073099;28;20396;-66
2024/01/08 05:45:21;;;;;;;18.23;7.93;;;;;;;-18.46;99.10;100579.63;5023539;28;20051;-66
2024/01/08 05:47:56;;;;;;;14.82;7.70;;;;;;;-18.44;98.87;100583.94;5039907;28;20052;-67
2024/01/08 05:50:27;;;;;;;18.17;7.03;;;;;;;-18.46;98.22;100584.72;5056393;28;20618;-67
2024/01/08 05:52:56;;;;;;;17.73;7.57;;;;;;;-18.51;98.29;100579.50;5040013;28;20158;-67
2024/01/08 05:55:22;;;;;;;23.45;7.90;;;;;;;-18.58;97.77;100580.19;5036303;28;20049;-67
2024/01/08 05:57:48;;;;;;;14.63;7.10;;;;;;;-18.61;97.52;100582.63;5020043;28;20481;-66
2024/01/08 06:00:17;;;;;;;16.17;8.02;;;;;;;-18.62;97.84;100570.78;5020312;28;20091;-68
2024/01/08 06:02:43;;;;;;;10.70;6.10;;;;;;;-18.62;96.98;100582.59;5020147;28;20472;-67
2024/01/08 06:05:09;;;;;;;13.43;6.97;;;;;;;-18.61;96.81;100574.16;5003736;28;20107;-66
2024/01/08 06:07:34;;;;;;;11.63;6.03;;;;;;;-18.58;96.24;100581.84;5019960;28;20408;-66
2024/01/08 06:10:01;;;;;;;18.47;7.20;;;;;;;-18.64;95.90;100574.94;5020305;28;20337;-66
2024/01/08 06:12:29;;;;;;;15.68;7.47;;;;;;;-18.75;96.48;100585.59;5020023;28;20064;-65
2024/01/08 06:14:57;;;;;;;18.27;7.50;;;;;;;-18.86;96.27;100579.38;4996591;28;20065;-65
2024/01/08 06:17:23;;;;;;;15.02;7.50;;;;;;;-18.89;96.23;100581.84;4997459;28;20045;-66
2024/01/08 06:19:49;;;;;;;17.35;7.15;;;;;;;-18.95;95.55;100577.44;4990629;28;20386;-65
2024/01/08 06:22:15;;;;;;;15.90;6.97;;;;;;;-19.03;94.61;100575.53;5012353;28;20049;-69
2024/01/08 06:24:41;;;;;;;12.13;6.55;;;;;;;-19.10;94.47;100587.13;5012497;28;20079;-65
2024/01/08 06:27:07;;;;;;;20.77;8.02;;;;;;;-19.22;94.58;100578.31;4996885;28;20049;-65
2024/01/08 06:29:37;;;;;;;;;;;;;;;-19.22;95.72;100565.66;5013382;28;20211;-67
2024/01/08 06:32:04;;;;;;;13.57;6.80;;;;;;;-19.41;97.00;100571.00;5020943;28;19961;-66
2024/01/08 06:34:30;;;;;;;15.00;6.47;;;;;;;-19.41;97.26;100576.94;5049052;28;20147;-66
2024/01/08 06:36:55;;;;;;;12.50;5.90;;;;;;;-19.45;97.17;100567.56;5015410;28;20175;-65
2024/01/08 06:39:22;;;;;;;17.07;6.70;;;;;;;-19.55;97.53;100572.28;5048583;28;20053;-70
2024/01/08 06:41:48;;;;;;;10.57;6.13;;;;;;;-19.56;97.89;100568.03;4996212;28;20046;-66
2024/01/08 06:44:17;;;;;;;15.83;7.23;;;;;;;-19.38;98.53;100586.28;5031910;28;20437;-66
2024/01/08 06:46:42;;;;;;;19.15;8.30;;;;;;;-19.29;97.81;100584.06;4998913;28;20040;-67
2024/01/08 06:49:16;;;;;;;16.35;8.13;;;;;;;-19.10;97.16;100577.00;4937751;28;20400;-66
2024/01/08 06:51:42;;;;;;;20.67;7.88;;;;;;;-18.89;95.90;100572.56;4937997;28;20079;-66
2024/01/08 06:54:18;;;;;;;17.23;7.10;;;;;;;-18.66;94.92;100585.88;4915195;29;20118;-70
2024/01/08 06:56:50;;;;;;;13.65;6.72;;;;;;;-18.29;94.13;100581.78;4914513;29;20416;-65
2024/01/08 06:59:24;;;;;;;11.70;6.68;;;;;;;-16.72;96.31;100567.63;4917812;29;20488;-65
2024/01/08 07:01:51;;;;;;;16.63;8.07;;;;;;;-14.95;91.19;100573.13;4884106;29;20052;-65
2024/01/08 07:04:17;;;;;;;13.80;7.53;;;;;;;-12.70;83.78;100578.50;4884354;29;20591;-65
2024/01/08 07:06:44;;;;;;;13.37;6.80;;;;;;;-11.39;71.52;100571.91;4912211;29;20300;-69
2024/01/08 07:09:11;;;;;;;18.03;7.30;;;;;;;-10.19;63.74;100577.59;4862253;29;20421;-69
2024/01/08 07:11:39;;;;;;;14.97;7.10;;;;;;;-9.17;57.49;100575.09;4866072;29;20285;-69
2024/01/08 07:14:15;;;;;;;21.07;8.97;;;;;;;-9.13;51.58;100571.63;4866265;29;20625;-67
2024/01/08 07:16:42;;;;;;;22.00;9.57;;;;;;;-9.62;48.08;100570.31;4897228;29;20398;-68
2024/01/08 07:19:09;;;;;;;18.50;9.97;;;;;;;-10.77;46.04;100582.94;4884304;29;20290;-77
2024/01/08 07:21:35;;;;;;;24.43;9.20;;;;;;;-11.41;46.59;100573.66;4936182;29;20295;-76
2024/01/08 07:24:00;;;;;;;19.17;8.30;;;;;;;-11.50;47.18;100573.63;4934442;29;20512;-74
2024/01/08 07:26:26;;;;;;;19.90;8.07;;;;;;;-12.17;47.04;100571.00;4919605;29;20110;-71
2024/01/08 07:28:52;;;;;;;20.30;7.87;;;;;;;-12.85;46.81;100568.19;4934193;29;20142;-69
2024/01/08 07:31:17;;;;;;;20.40;9.47;;;;;;;-13.25;47.93;100566.28;4936895;29;20055;-75
2024/01/08 07:33:43;;;;;;;12.57;8.30;;;;;;;-12.03;48.74;100567.63;4935097;29;20062;-71
2024/01/08 07:36:10;;;;;;;19.47;8.87;;;;;;;-9.64;49.14;100576.34;4934120;29;20141;-72
2024/01/08 07:38:36;;;;;;;22.27;9.93;;;;;;;-7.68;46.71;100573.25;4963180;28;20353;-68
2024/01/08 07:41:02;;;;;;;20.37;8.90;;;;;;;-6.96;43.01;100570.38;4989409;28;20050;-70
2024/01/08 07:43:34;;;;;;;20.40;8.40;;;;;;;-7.66;40.50;100568.94;5005361;28;20053;-72
2024/01/08 07:46:04;;;;;;;23.23;8.70;;;;;;;-8.98;39.65;100556.03;5009914;28;20103;-70
2024/01/08 07:48:29;;;;;;;18.13;8.00;;;;;;;-9.76;40.22;100561.03;5045557;28;20134;-69
2024/01/08 07:50:56;;;;;;;20.67;10.23;;;;;;;-9.71;41.01;100548.97;5089172;27;20075;-71
2024/01/08 07:53:22;;;;;;;19.33;9.47;;;;;;;-8.50;41.33;100556.38;5080025;27;20040;-69
2024/01/08 07:55:49;;;;;;;25.67;12.60;;;;;;;-6.65;41.27;100561.16;5133687;27;20728;-71
2024/01/08 07:58:15;;;;;;;20.10;10.03;;;;;;;-4.52;39.10;100560.41;5098324;27;20208;-69
2024/01/08 08:00:42;;;;;;;17.00;9.00;;;;;;;-2.62;36.75;100556.09;5116264;27;20035;-69
2024/01/08 08:03:08;;;;;;;17.50;9.90;;;;;;;-1.02;33.65;100547.25;5098759;27;20031;-74
2024/01/08 08:05:34;;;;;;;18.93;9.23;;;;;;;0.09;31.58;100544.06;5134025;27;20110;-72
2024/01/08 08:08:00;;;;;;;20.83;9.03;;;;;;;1.06;29.37;100544.50;5133946;27;20046;-70
2024/01/08 08:10:25;;;;;;;14.37;8.97;;;;;;;1.78;27.94;100535.47;5132329;27;20043;-70
2024/01/08 08:12:52;;;;;;;16.27;8.93;;;;;;;2.23;26.46;100529.53;5114398;27;20126;-71
2024/01/08 08:15:19;;;;;;;16.30;9.00;;;;;;;2.84;25.58;100533.06;5132260;27;20051;-72
2024/01/08 08:17:45;;;;;;;15.33;8.83;;;;;;;3.31;24.85;100528.50;5114226;27;20035;-71
2024/01/08 08:20:11;;;;;;;15.55;9.45;;;;;;;3.63;23.61;100533.63;5117150;27;20050;-71
2024/01/08 08:22:37;;;;;;;16.10;8.77;;;;;;;3.89;23.19;100530.25;5135532;27;20039;-70
2024/01/08 08:25:04;;;;;;;17.38;9.75;;;;;;;3.20;22.28;100514.31;5134855;27;20103;-74
2024/01/08 08:27:32;;;;;;;15.25;8.70;;;;;;;1.85;22.64;100517.69;5117307;27;20126;-69
2024/01/08 08:29:58;;;;;;;16.73;9.03;;;;;;;-0.05;23.16;100506.38;5099666;27;20514;-73
2024/01/08 08:32:23;;;;;;;19.00;9.37;;;;;;;-2.42;24.40;100505.97;5098637;27;20130;-69
2024/01/08 08:34:49;;;;;;;19.47;9.00;;;;;;;-4.30;26.25;100494.94;5094426;28;20067;-70
2024/01/08 08:37:15;;;;;;;20.93;10.10;;;;;;;-6.54;28.08;100492.06;5094378;28;20109;-71
2024/01/08 08:39:40;;;;;;;18.47;9.03;;;;;;;-7.29;29.83;100486.66;5111891;28;20048;-68
2024/01/08 08:42:08;;;;;;;19.27;10.73;;;;;;;-6.72;31.04;100484.69;5037535;28;20086;-68
2024/01/08 08:44:34;;;;;;;19.07;9.87;;;;;;;-4.94;30.57;100495.06;5022294;28;20442;-74
2024/01/08 08:47:02;;;;;;;25.23;11.60;;;;;;;-3.52;29.61;100476.91;5016159;28;20537;-67
2024/01/08 08:49:28;;;;;;;20.03;9.80;;;;;;;-1.58;27.84;100487.03;5048963;28;20063;-73
2024/01/08 08:51:54;;;;;;;18.67;9.87;;;;;;;-0.18;26.48;100488.72;5015643;28;20037;-75
2024/01/08 08:54:19;;;;;;;17.07;9.13;;;;;;;1.17;25.16;100484.66;5031299;28;20728;-73
2024/01/08 08:56:45;;;;;;;15.07;8.63;;;;;;;2.24;24.12;100472.75;5014821;28;20049;-72
2024/01/08 08:59:11;;;;;;;18.20;9.37;;;;;;;3.28;23.27;100480.59;5016421;28;20033;-73
2024/01/08 09:01:36;;;;;;;15.20;8.97;;;;;;;3.98;22.33;100482.38;4992630;28;20108;-71
2024/01/08 09:04:02;;;;;;;20.53;10.10;;;;;;;4.39;21.62;100476.19;4960210;28;20084;-65
2024/01/08 09:06:30;;;;;;;18.45;10.75;;;;;;;4.93;21.13;100459.41;5007121;28;20056;-75
2024/01/08 09:08:56;;;;;;;17.98;10.25;;;;;;;5.52;20.53;100451.84;5011362;28;20488;-74
2024/01/08 09:11:22;;;;;;;18.17;8.98;;;;;;;6.05;20.19;100447.16;5027744;28;20486;-77
2024/01/08 09:13:49;;;;;;;16.50;9.52;;;;;;;6.43;19.73;100439.94;4979027;28;20140;-80
2024/01/08 09:16:15;;;;;;;17.58;9.60;;;;;;;6.60;19.16;100433.41;5028874;28;20697;-78
2024/01/08 09:18:43;;;;;;;18.02;10.32;;;;;;;6.56;19.01;100438.09;4954071;28;20151;-74
2024/01/08 09:21:10;;;;;;;14.05;9.38;;;;;;;6.75;18.63;100433.13;4970518;28;20046;-74
2024/01/08 09:23:37;;;;;;;16.38;9.07;;;;;;;6.87;18.40;100437.47;4953519;28;20062;-74
2024/01/08 09:26:04;;;;;;;19.30;10.07;;;;;;;7.14;18.59;100441.63;4968966;28;20046;-76
2024/01/08 09:28:30;;;;;;;17.27;10.18;;;;;;;7.10;18.27;100445.47;4919883;28;20057;-77
2024/01/08 09:30:56;;;;;;;17.05;10.18;;;;;;;7.42;18.26;100435.91;4922572;28;20053;-74
2024/01/08 09:33:22;;;;;;;17.90;9.55;;;;;;;7.67;18.11;100435.69;4985426;28;20061;-76
2024/01/08 09:35:48;;;;;;;17.58;10.65;;;;;;;8.20;18.04;100432.25;4995971;28;20343;-75
2024/01/08 09:38:14;;;;;;;21.95;12.55;;;;;;;8.56;17.54;100430.13;4981487;28;20045;-76
2024/01/08 09:40:42;;;;;;;22.67;12.90;;;;;;;9.12;17.29;100425.41;5015165;28;20048;-75
2024/01/08 09:43:09;;;;;;;20.55;12.50;;;;;;;9.23;17.10;100422.69;5009632;28;20088;-73
2024/01/08 09:45:39;;;;;;;20.02;12.75;;;;;;;9.58;16.77;100414.38;4996555;28;20435;-77
2024/01/08 09:48:08;;;;;;;18.63;10.10;;;;;;;9.75;16.67;100405.75;4986069;28;20053;-75
2024/01/08 09:50:35;;;;;;;19.92;11.60;;;;;;;9.87;16.30;100397.56;5048608;28;20048;-75
2024/01/08 09:53:01;;;;;;;20.02;11.00;;;;;;;9.84;16.29;100391.72;5070570;28;20832;-75
2024/01/08 09:55:27;;;;;;;20.77;10.07;;;;;;;10.15;16.45;100386.22;5040534;28;20055;-76
2024/01/08 09:57:53;;;;;;;16.98;9.90;;;;;;;10.18;16.23;100391.25;5074879;28;20055;-79
2024/01/08 10:00:22;;;;;;;19.75;11.23;;;;;;;9.38;16.14;100383.44;5058458;28;20047;-77
2024/01/08 10:02:55;;;;;;;19.30;10.80;;;;;;;9.67;16.28;100377.25;5076801;28;20145;-78
2024/01/08 10:05:23;;;;;;;21.15;11.35;;;;;;;9.61;15.97;100372.50;5091103;28;20051;-77
2024/01/08 10:07:50;;;;;;;20.23;10.75;;;;;;;9.37;16.21;100369.34;5074796;28;20140;-76
2024/01/08 10:10:16;;;;;;;19.90;10.95;;;;;;;9.29;16.27;100366.50;5038524;28;20063;-75
2024/01/08 10:12:47;;;;;;;19.45;11.02;;;;;;;9.51;16.25;100366.34;5058143;28;20048;-77
2024/01/08 10:15:18;;;;;;;20.42;11.30;;;;;;;9.32;16.04;100355.63;5075937;28;20066;-74
2024/01/08 10:17:51;;;;;;;18.50;10.80;;;;;;;9.15;16.25;100358.91;5093215;28;20397;-77
2024/01/08 10:20:19;;;;;;;17.80;10.57;;;;;;;8.97;16.52;100349.03;5118250;27;20043;-73
2024/01/08 10:22:45;;;;;;;22.00;11.93;;;;;;;8.76;16.47;100346.41;5029455;28;20488;-74
2024/01/08 10:25:12;;;;;;;18.95;10.68;;;;;;;9.01;16.43;100350.47;5016250;28;20072;-77
2024/01/08 10:27:38;;;;;;;19.85;11.02;;;;;;;9.33;16.58;100346.69;5031131;28;20051;-79
2024/01/08 10:30:08;;;;;;;18.67;10.30;;;;;;;9.33;16.43;100345.88;5030817;28;20052;-76
2024/01/08 10:32:36;;;;;;;19.10;10.38;;;;;;;9.56;16.54;100337.56;5016268;28;20576;-77
2024/01/08 10:35:05;;;;;;;18.45;9.55;;;;;;;9.65;16.47;100335.94;5020318;28;20071;-77
2024/01/08 10:37:32;;;;;;;17.52;10.20;;;;;;;9.62;16.49;100331.75;5005797;28;20052;-74
2024/01/08 10:40:00;;;;;;;18.00;9.88;;;;;;;9.79;16.80;100341.69;5050968;28;20099;-76
2024/01/08 10:42:27;;;;;;;15.52;9.23;;;;;;;9.88;16.62;100326.78;4998530;28;20508;-74
2024/01/08 10:44:54;;;;;;;15.45;9.25;;;;;;;9.98;16.38;100320.53;5014804;28;20054;-74
2024/01/08 10:47:23;;;;;;;16.05;9.38;;;;;;;10.05;16.58;100321.66;5000724;28;20053;-78
2024/01/08 10:49:58;;;;;;;17.23;9.50;;;;;;;9.91;16.64;100308.78;4983051;28;20044;-78
2024/01/08 10:52:28;;;;;;;14.43;8.95;;;;;;;9.87;16.53;100317.16;4982736;28;20411;-77
2024/01/08 10:54:54;;;;;;;15.75;8.65;;;;;;;9.51;16.56;100302.69;5036489;28;20054;-75
2024/01/08 10:57:21;;;;;;;16.15;8.25;;;;;;;9.32;16.65;100307.06;5022801;28;20479;-75
2024/01/08 10:59:49;;;;;;;15.43;8.48;;;;;;;9.15;17.02;100300.59;5028612;28;20048;-76
2024/01/08 11:02:16;;;;;;;14.38;8.20;;;;;;;8.96;16.88;100295.22;5075986;28;20074;-73
2024/01/08 11:04:46;;;;;;;20.17;9.75;;;;;;;8.81;16.82;100291.22;5049620;28;20044;-76
2024/01/08 11:07:13;;;;;;;18.90;9.77;;;;;;;8.67;17.27;100288.91;5069734;28;20052;-73
2024/01/08 11:09:42;;;;;;;17.98;10.35;;;;;;;8.62;17.22;100285.81;5018301;28;20068;-73